Time;durP1;ratioP1;P1;durP2;ratioP2;P2;SDS_P1;SDS_P2;PMS_P1;PMS_P2;Temp;Humidity;BMP_temperature;BMP_pressure;BME280_temperature;BME280_humidity;BME280_pressure;Samples;Min_cycle;Max_cycle;Signal;HPM_P1;HPM_P2
2022/03/07 00:00:09;;;;;;;15.35;11.18;;;;;;;-1.22;100.00;101271.01;1743031;81;21723;-80
2022/03/07 00:02:36;;;;;;;13.80;10.60;;;;;;;-1.21;100.00;101270.56;1711324;82;21081;-79
2022/03/07 00:05:04;;;;;;;16.27;10.90;;;;;;;-1.17;100.00;101264.55;1742958;81;20987;-79
2022/03/07 00:07:32;;;;;;;16.70;11.40;;;;;;;-1.17;100.00;101263.27;1742942;81;21014;-79
2022/03/07 00:10:00;;;;;;;18.60;12.33;;;;;;;-1.16;100.00;101261.96;1742972;81;21084;-79
2022/03/07 00:12:27;;;;;;;17.27;10.75;;;;;;;-1.15;100.00;101261.52;1742832;81;21231;-81
2022/03/07 00:14:54;;;;;;;20.05;11.80;;;;;;;-1.15;100.00;101256.40;1742924;81;21121;-80
2022/03/07 00:17:20;;;;;;;16.97;11.68;;;;;;;-1.12;100.00;101253.80;1742598;81;21544;-81
2022/03/07 00:19:47;;;;;;;16.05;10.93;;;;;;;-1.11;100.00;101247.83;1743060;81;21026;-80
2022/03/07 00:22:14;;;;;;;16.20;11.68;;;;;;;-1.09;100.00;101240.98;1742941;81;21069;-80
2022/03/07 00:24:42;;;;;;;17.02;11.97;;;;;;;-1.08;100.00;101240.09;1742871;80;21151;-79
2022/03/07 00:27:08;;;;;;;17.62;11.75;;;;;;;-1.08;100.00;101245.20;1743068;80;21492;-79
2022/03/07 00:29:37;;;;;;;18.95;12.88;;;;;;;-1.07;100.00;101237.95;1751001;81;21062;-80
2022/03/07 00:32:06;;;;;;;19.75;12.30;;;;;;;-1.07;100.00;101235.39;1751062;81;21058;-82
2022/03/07 00:34:33;;;;;;;19.82;13.50;;;;;;;-1.11;100.00;101222.27;1751191;81;21536;-80
2022/03/07 00:37:02;;;;;;;21.93;13.48;;;;;;;-1.12;100.00;101225.69;1751282;81;22035;-80
2022/03/07 00:39:29;;;;;;;19.45;13.18;;;;;;;-1.13;100.00;101227.83;1751153;81;21073;-79
2022/03/07 00:41:56;;;;;;;19.77;12.50;;;;;;;-1.17;100.00;101223.20;1751428;81;21101;-81
2022/03/07 00:44:24;;;;;;;22.07;12.90;;;;;;;-1.18;100.00;101220.69;1751185;81;21045;-85
2022/03/07 00:46:51;;;;;;;21.68;13.50;;;;;;;-1.17;100.00;101221.09;1751117;81;21036;-84
2022/03/07 00:49:18;;;;;;;20.88;13.80;;;;;;;-1.16;100.00;101214.67;1751580;81;21207;-84
2022/03/07 00:51:45;;;;;;;20.95;14.28;;;;;;;-1.17;100.00;101210.42;1751152;81;21793;-83
2022/03/07 00:54:12;;;;;;;19.95;13.60;;;;;;;-1.18;100.00;101204.08;1749052;80;21051;-83
2022/03/07 00:56:40;;;;;;;21.23;15.08;;;;;;;-1.22;100.00;101199.45;1719314;82;21107;-80
2022/03/07 00:59:07;;;;;;;22.55;15.48;;;;;;;-1.23;100.00;101201.59;1748818;80;21090;-81
2022/03/07 01:01:35;;;;;;;21.20;14.15;;;;;;;-1.27;100.00;101195.69;1756543;80;21731;-80
2022/03/07 01:04:02;;;;;;;22.30;15.00;;;;;;;-1.27;100.00;101193.13;1750790;81;21573;-80
2022/03/07 01:06:29;;;;;;;21.10;14.10;;;;;;;-1.29;100.00;101188.47;1751519;80;21053;-80
2022/03/07 01:08:56;;;;;;;22.20;15.25;;;;;;;-1.32;100.00;101185.95;1750918;81;22361;-80
2022/03/07 01:11:23;;;;;;;19.80;13.43;;;;;;;-1.35;100.00;101182.20;1751492;81;21041;-81
2022/03/07 01:13:50;;;;;;;21.10;13.60;;;;;;;-1.35;100.00;101182.20;1751460;80;21288;-82
2022/03/07 01:16:17;;;;;;;23.30;13.58;;;;;;;-1.32;100.00;101179.57;1751107;81;21084;-80
2022/03/07 01:18:43;;;;;;;20.60;13.40;;;;;;;-1.32;100.00;101166.79;1751804;80;21569;-80
2022/03/07 01:21:12;;;;;;;21.48;14.70;;;;;;;-1.29;100.00;101169.76;1751160;80;21050;-81
2022/03/07 01:23:39;;;;;;;20.08;12.82;;;;;;;-1.27;100.00;101164.16;1750667;81;21088;-79
2022/03/07 01:26:06;;;;;;;20.57;12.98;;;;;;;-1.28;100.00;101164.61;1721729;81;21237;-80
2022/03/07 01:28:34;;;;;;;17.07;11.30;;;;;;;-1.27;100.00;101161.19;1751370;81;21378;-85
2022/03/07 01:31:01;;;;;;;15.30;11.22;;;;;;;-1.27;100.00;101155.22;1721984;81;21080;-82
2022/03/07 01:33:28;;;;;;;17.62;12.07;;;;;;;-1.23;100.00;101152.17;1751331;80;21583;-81
2022/03/07 01:35:55;;;;;;;16.05;10.88;;;;;;;-1.19;100.00;101151.27;1749714;80;21561;-83
2022/03/07 01:38:25;;;;;;;14.73;10.80;;;;;;;-1.17;100.00;101146.53;1749215;80;21271;-83
2022/03/07 01:40:53;;;;;;;14.38;10.50;;;;;;;-1.13;100.00;101148.17;1749458;81;21076;-82
2022/03/07 01:43:19;;;;;;;14.73;10.13;;;;;;;-1.08;100.00;101145.95;1749239;80;21056;-80
2022/03/07 01:45:46;;;;;;;15.40;10.30;;;;;;;-1.05;100.00;101145.91;1751196;80;21549;-80
2022/03/07 01:48:13;;;;;;;16.87;10.43;;;;;;;-1.01;100.00;101140.72;1750977;81;21100;-80
2022/03/07 01:50:40;;;;;;;15.20;9.68;;;;;;;-0.98;100.00;101141.92;1751353;81;21885;-80
2022/03/07 01:53:08;;;;;;;12.45;8.98;;;;;;;-0.97;100.00;101142.33;1750985;81;21045;-80
2022/03/07 01:55:38;;;;;;;14.35;9.95;;;;;;;-0.94;100.00;101138.87;1751211;81;21092;-80
2022/03/07 01:58:07;;;;;;;14.95;10.35;;;;;;;-0.92;100.00;101135.03;1750464;81;21888;-79
2022/03/07 02:00:36;;;;;;;14.70;10.10;;;;;;;-0.91;100.00;101139.24;1722043;81;20994;-79
2022/03/07 02:03:03;;;;;;;15.32;9.38;;;;;;;-0.91;100.00;101137.97;1750981;81;21148;-79
2022/03/07 02:05:33;;;;;;;16.67;10.38;;;;;;;-0.90;100.00;101139.66;1750357;81;21543;-79
2022/03/07 02:08:15;;;;;;;15.50;10.45;;;;;;;-0.90;100.00;101138.37;1746660;81;21542;-79
2022/03/07 02:10:45;;;;;;;15.30;10.15;;;;;;;-0.90;100.00;101131.56;1746827;81;21676;-79
2022/03/07 02:13:16;;;;;;;13.60;9.73;;;;;;;-0.91;100.00;101129.88;1751028;81;21567;-80
2022/03/07 02:15:56;;;;;;;17.80;9.73;;;;;;;-0.93;100.00;101124.39;1750340;81;21509;-82
2022/03/07 02:18:29;;;;;;;14.33;10.10;;;;;;;-0.94;100.00;101120.14;1751162;80;21041;-80
2022/03/07 02:21:06;;;;;;;14.63;9.70;;;;;;;-0.96;100.00;101125.27;1747375;81;21089;-80
2022/03/07 02:23:37;;;;;;;18.23;10.08;;;;;;;-1.01;100.00;101121.97;1744591;81;21085;-80
2022/03/07 02:26:18;;;;;;;16.45;9.83;;;;;;;-1.06;100.00;101122.05;1751083;81;21080;-79
2022/03/07 02:28:46;;;;;;;13.15;9.10;;;;;;;-1.06;100.00;101127.16;1747616;81;21246;-80
2022/03/07 02:31:20;;;;;;;15.18;9.30;;;;;;;-1.05;100.00;101125.02;1742721;81;21072;-81
2022/03/07 02:33:49;;;;;;;14.10;9.68;;;;;;;-1.05;100.00;101121.63;1742830;82;21085;-79
2022/03/07 02:36:17;;;;;;;17.75;9.88;;;;;;;-1.06;100.00;101119.94;1735854;82;21053;-79
2022/03/07 02:38:48;;;;;;;17.17;10.23;;;;;;;-1.11;100.00;101117.02;1742899;82;21058;-80
2022/03/07 02:41:16;;;;;;;17.00;10.38;;;;;;;-1.15;100.00;101115.82;1711116;82;21106;-79
2022/03/07 02:43:45;;;;;;;15.93;10.82;;;;;;;-1.19;100.00;101111.20;1759452;80;21010;-80
2022/03/07 02:46:11;;;;;;;17.42;10.43;;;;;;;-1.24;100.00;101114.29;1773492;80;21074;-79
2022/03/07 02:48:39;;;;;;;16.07;10.95;;;;;;;-1.29;100.00;101116.92;1741482;80;21039;-80
2022/03/07 02:51:06;;;;;;;16.15;10.88;;;;;;;-1.30;100.00;101115.23;1773726;80;21089;-81
2022/03/07 02:53:34;;;;;;;15.85;9.95;;;;;;;-1.30;100.00;101117.78;1773851;80;21091;-83
2022/03/07 02:56:01;;;;;;;15.53;10.35;;;;;;;-1.32;100.00;101116.97;1747393;80;21015;-84
2022/03/07 02:58:28;;;;;;;15.55;9.80;;;;;;;-1.34;100.00;101112.75;1743206;80;21053;-84
2022/03/07 03:00:55;;;;;;;16.40;10.18;;;;;;;-1.37;100.00;101112.38;1742994;81;21633;-83
2022/03/07 03:03:22;;;;;;;13.38;9.30;;;;;;;-1.40;100.00;101112.87;1743430;81;21016;-84
2022/03/07 03:05:54;;;;;;;15.28;10.18;;;;;;;-1.42;100.00;101109.08;1742851;82;21357;-84
2022/03/07 03:08:18;;;;;;;17.55;10.00;;;;;;;-1.42;100.00;101112.91;1738280;81;21104;-81
2022/03/07 03:10:44;;;;;;;19.90;11.28;;;;;;;-1.43;100.00;101107.38;1742929;81;21064;-80
2022/03/07 03:13:11;;;;;;;14.03;9.65;;;;;;;-1.45;100.00;101104.87;1743056;82;21061;-81
2022/03/07 03:15:38;;;;;;;16.05;10.40;;;;;;;-1.47;100.00;101101.48;1742945;81;21435;-83
2022/03/07 03:18:05;;;;;;;14.03;9.88;;;;;;;-1.47;100.00;101095.52;1742833;82;21881;-82
2022/03/07 03:20:32;;;;;;;16.37;10.05;;;;;;;-1.47;100.00;101091.27;1743062;81;21530;-80
2022/03/07 03:22:59;;;;;;;14.85;9.43;;;;;;;-1.48;100.00;101093.83;1742840;82;21269;-84
2022/03/07 03:25:26;;;;;;;13.08;9.20;;;;;;;-1.48;100.00;101093.83;1742938;82;21074;-84
2022/03/07 03:27:53;;;;;;;15.05;10.10;;;;;;;-1.49;100.00;101095.55;1742775;81;22454;-82
2022/03/07 03:30:20;;;;;;;14.38;9.25;;;;;;;-1.46;100.00;101098.48;1750247;81;21520;-82
2022/03/07 03:32:46;;;;;;;11.85;8.63;;;;;;;-1.44;100.00;101098.03;1750627;81;21069;-83
2022/03/07 03:35:13;;;;;;;11.75;8.30;;;;;;;-1.42;100.00;101092.47;1750716;81;21049;-85
2022/03/07 03:37:41;;;;;;;17.25;8.95;;;;;;;-1.39;100.00;101087.28;1750075;81;21038;-83
2022/03/07 03:40:11;;;;;;;13.60;8.98;;;;;;;-1.35;100.00;101085.09;1749263;82;21515;-83
2022/03/07 03:42:40;;;;;;;14.53;9.38;;;;;;;-1.30;100.00;101083.73;1749395;81;21261;-80
2022/03/07 03:45:08;;;;;;;12.98;9.13;;;;;;;-1.28;100.00;101076.45;1748943;82;21925;-80
2022/03/07 03:47:38;;;;;;;13.38;8.68;;;;;;;-1.28;100.00;101080.28;1749253;82;21023;-81
2022/03/07 03:50:08;;;;;;;13.68;9.20;;;;;;;-1.27;100.00;101079.41;1750140;80;21036;-79
2022/03/07 03:52:35;;;;;;;12.75;8.70;;;;;;;-1.25;100.00;101079.83;1745618;82;20973;-80
2022/03/07 03:55:05;;;;;;;12.58;7.85;;;;;;;-1.23;100.00;101076.36;1745824;81;21361;-80
2022/03/07 03:57:32;;;;;;;12.30;9.13;;;;;;;-1.21;100.00;101073.77;1745172;82;21080;-79
2022/03/07 03:59:59;;;;;;;12.75;9.45;;;;;;;-1.19;100.00;101074.14;1764406;80;21505;-80
2022/03/07 04:02:26;;;;;;;12.88;8.73;;;;;;;-1.18;100.00;101070.72;1775920;80;22322;-80
2022/03/07 04:04:53;;;;;;;13.20;9.08;;;;;;;-1.16;100.00;101070.71;1776559;80;21031;-80
2022/03/07 04:07:19;;;;;;;11.38;8.25;;;;;;;-1.15;100.00;101063.42;1776147;80;21021;-82
2022/03/07 04:09:46;;;;;;;12.90;9.55;;;;;;;-1.12;100.00;101059.55;1756145;80;21066;-79
2022/03/07 04:12:14;;;;;;;12.80;9.10;;;;;;;-1.12;100.00;101063.38;1745434;80;21029;-80
2022/03/07 04:14:41;;;;;;;12.50;8.88;;;;;;;-1.11;100.00;101058.67;1745241;82;21609;-82
2022/03/07 04:17:08;;;;;;;12.45;9.03;;;;;;;-1.10;100.00;101061.64;1756267;80;21562;-80
2022/03/07 04:19:36;;;;;;;11.93;9.40;;;;;;;-1.09;100.00;101059.50;1775519;80;21250;-80
2022/03/07 04:22:04;;;;;;;13.35;8.75;;;;;;;-1.08;100.00;101056.04;1768857;80;21071;-82
2022/03/07 04:24:32;;;;;;;12.15;8.43;;;;;;;-1.08;100.00;101053.48;1743873;82;21122;-81
2022/03/07 04:26:59;;;;;;;15.80;9.90;;;;;;;-1.05;100.00;101042.38;1712406;82;21048;-80
2022/03/07 04:29:27;;;;;;;12.75;9.05;;;;;;;-1.03;100.00;101044.45;1739780;81;21098;-79
2022/03/07 04:31:53;;;;;;;12.90;9.03;;;;;;;-1.03;100.00;101040.61;1752921;81;21133;-80
2022/03/07 04:34:21;;;;;;;14.23;9.60;;;;;;;-1.03;100.00;101043.17;1754769;81;21493;-80
2022/03/07 04:36:48;;;;;;;13.45;9.35;;;;;;;-1.03;100.00;101044.03;1741800;81;21041;-81
2022/03/07 04:39:15;;;;;;;13.18;8.70;;;;;;;-1.00;100.00;101043.13;1745352;81;21081;-83
2022/03/07 04:41:44;;;;;;;21.82;10.00;;;;;;;-1.00;100.00;101037.56;1749620;81;21034;-84
2022/03/07 04:44:12;;;;;;;18.62;8.78;;;;;;;-0.94;100.00;101034.49;1754533;81;21252;-83
2022/03/07 04:46:40;;;;;;;20.60;10.15;;;;;;;-0.83;100.00;101033.39;1754900;81;21136;-84
2022/03/07 04:49:10;;;;;;;35.10;10.68;;;;;;;-0.76;100.00;101036.64;1754591;81;21093;-85
2022/03/07 04:51:39;;;;;;;90.45;13.75;;;;;;;-0.74;100.00;101030.23;1733792;81;21145;-83
2022/03/07 04:54:06;;;;;;;73.12;12.05;;;;;;;-0.66;100.00;101030.47;1729681;81;21019;-82
2022/03/07 04:56:34;;;;;;;111.17;14.50;;;;;;;-0.42;100.00;101027.41;1746907;81;21249;-83
2022/03/07 04:59:01;;;;;;;22.00;11.10;;;;;;;-0.22;100.00;101020.09;1745603;81;21204;-83
2022/03/07 05:01:28;;;;;;;30.77;10.80;;;;;;;0.11;100.00;101020.16;1741894;81;21113;-81
2022/03/07 05:03:55;;;;;;;23.12;10.20;;;;;;;0.35;100.00;101012.73;1695146;81;21097;-81
2022/03/07 05:06:22;;;;;;;15.40;10.18;;;;;;;0.52;100.00;101016.11;1747209;81;21705;-80
2022/03/07 05:08:50;;;;;;;23.77;9.68;;;;;;;0.53;100.00;101018.25;1743007;81;21248;-81
2022/03/07 05:11:19;;;;;;;18.95;10.80;;;;;;;0.42;100.00;101009.13;1735134;81;20951;-81
2022/03/07 05:13:46;;;;;;;24.12;10.45;;;;;;;0.28;100.00;101009.47;1725625;81;21018;-80
2022/03/07 05:16:16;;;;;;;24.00;12.60;;;;;;;0.15;100.00;101008.12;1742543;81;21018;-82
2022/03/07 05:18:43;;;;;;;21.93;11.65;;;;;;;0.06;100.00;101011.77;1748581;81;21037;-81
2022/03/07 05:21:11;;;;;;;15.40;9.78;;;;;;;-0.04;100.00;101007.73;1736054;81;22094;-82
2022/03/07 05:23:39;;;;;;;16.60;9.30;;;;;;;-0.16;100.00;101008.42;1743740;81;21519;-82
2022/03/07 05:26:08;;;;;;;17.70;8.98;;;;;;;-0.26;100.00;101001.01;1751703;81;21049;-81
2022/03/07 05:28:35;;;;;;;16.52;8.70;;;;;;;-0.34;100.00;101000.75;1747654;81;21030;-81
2022/03/07 05:31:05;;;;;;;15.35;8.10;;;;;;;-0.39;100.00;100996.19;1752681;81;21552;-81
2022/03/07 05:33:32;;;;;;;12.60;8.35;;;;;;;-0.45;100.00;100998.05;1749847;81;21406;-82
2022/03/07 05:35:59;;;;;;;10.75;8.03;;;;;;;-0.53;100.00;100993.12;1703678;81;21054;-83
2022/03/07 05:38:26;;;;;;;13.30;7.80;;;;;;;-0.57;100.00;100985.09;1730736;81;22094;-81
2022/03/07 05:40:56;;;;;;;12.47;7.92;;;;;;;-0.59;100.00;100992.81;1738110;81;21962;-82
2022/03/07 05:43:23;;;;;;;12.07;8.10;;;;;;;-0.59;100.00;100991.95;1754122;81;21765;-81
2022/03/07 05:45:49;;;;;;;12.75;8.35;;;;;;;-0.58;100.00;100996.20;1726507;81;21261;-82
2022/03/07 05:48:16;;;;;;;12.45;9.33;;;;;;;-0.58;100.00;100992.36;1724587;83;21104;-82
2022/03/07 05:50:44;;;;;;;13.70;9.80;;;;;;;-0.54;100.00;100990.16;1691504;83;21121;-82
2022/03/07 05:53:12;;;;;;;14.13;9.43;;;;;;;-0.54;100.00;100990.98;1724412;83;21163;-81
2022/03/07 05:55:41;;;;;;;19.37;9.98;;;;;;;-0.54;100.00;100989.70;1724625;83;21062;-81
2022/03/07 05:58:08;;;;;;;15.53;10.85;;;;;;;-0.52;100.00;100988.41;1726697;81;21320;-81
2022/03/07 06:00:35;;;;;;;13.80;10.65;;;;;;;-0.50;100.00;100982.80;1740123;81;21566;-80
2022/03/07 06:03:02;;;;;;;13.78;10.13;;;;;;;-0.49;100.00;100981.92;1737327;81;21061;-81
2022/03/07 06:05:31;;;;;;;12.47;10.10;;;;;;;-0.49;100.00;100981.50;1748316;81;21073;-80
2022/03/07 06:08:00;;;;;;;15.35;10.93;;;;;;;-0.46;100.00;100984.42;1724827;81;21037;-82
2022/03/07 06:10:27;;;;;;;12.82;10.45;;;;;;;-0.46;100.00;100979.30;1724312;83;21274;-81
2022/03/07 06:12:54;;;;;;;13.85;11.10;;;;;;;-0.44;100.00;100981.36;1726631;81;21578;-80
2022/03/07 06:15:21;;;;;;;13.90;10.45;;;;;;;-0.43;100.00;100979.21;1747742;81;21533;-80
2022/03/07 06:17:54;;;;;;;13.62;10.20;;;;;;;-0.41;100.00;100983.86;1748145;81;21108;-80
2022/03/07 06:20:23;;;;;;;13.88;10.98;;;;;;;-0.38;100.00;100980.39;1742057;81;21097;-80
2022/03/07 06:22:50;;;;;;;18.57;11.85;;;;;;;-0.36;100.00;100973.52;1754658;81;21206;-80
2022/03/07 06:25:18;;;;;;;42.67;12.55;;;;;;;-0.29;100.00;100971.22;1754349;81;20923;-81
2022/03/07 06:27:44;;;;;;;16.65;11.68;;;;;;;-0.10;100.00;100971.60;1754652;81;21629;-81
2022/03/07 06:30:12;;;;;;;18.07;10.72;;;;;;;0.33;100.00;100973.94;1754530;81;20967;-80
2022/03/07 06:32:40;;;;;;;16.32;10.58;;;;;;;0.46;100.00;100967.59;1754817;81;21139;-80
2022/03/07 06:35:07;;;;;;;15.55;10.38;;;;;;;0.45;100.00;100974.88;1747248;81;21242;-80
2022/03/07 06:37:36;;;;;;;18.02;11.22;;;;;;;0.43;100.00;100973.66;1728652;82;21489;-81
2022/03/07 06:40:04;;;;;;;17.80;11.68;;;;;;;0.40;100.00;100974.17;1768852;80;22605;-81
2022/03/07 06:42:33;;;;;;;13.65;10.95;;;;;;;0.41;100.00;100973.30;1750380;81;21094;-78
2022/03/07 06:45:00;;;;;;;18.42;10.95;;;;;;;0.44;100.00;100975.79;1732734;81;21045;-76
2022/03/07 06:47:28;;;;;;;16.07;10.38;;;;;;;0.42;100.00;100975.81;1741480;81;21218;-77
2022/03/07 06:49:58;;;;;;;15.93;10.70;;;;;;;0.37;100.00;100962.30;1736764;81;21591;-78
2022/03/07 06:52:25;;;;;;;15.25;10.63;;;;;;;0.35;100.00;100968.34;1742343;81;21100;-78
2022/03/07 06:54:52;;;;;;;16.50;11.35;;;;;;;0.30;100.00;100962.89;1739056;81;21081;-77
2022/03/07 06:57:21;;;;;;;15.20;11.03;;;;;;;0.26;100.00;100963.87;1748457;81;21590;-76
2022/03/07 06:59:49;;;;;;;22.87;12.05;;;;;;;0.23;100.00;100958.81;1744063;81;21112;-78
2022/03/07 07:02:17;;;;;;;17.30;11.28;;;;;;;0.22;100.00;100954.56;1739305;81;21006;-77
2022/03/07 07:04:44;;;;;;;17.35;12.35;;;;;;;0.24;100.00;100957.11;1753523;81;21065;-81
2022/03/07 07:07:11;;;;;;;16.77;11.78;;;;;;;0.27;100.00;100951.46;1752750;81;21065;-77
2022/03/07 07:09:41;;;;;;;20.48;13.62;;;;;;;0.27;100.00;100946.34;1707836;81;21046;-77
2022/03/07 07:12:09;;;;;;;22.62;13.05;;;;;;;0.27;100.00;100949.32;1729249;81;22197;-81
2022/03/07 07:14:37;;;;;;;23.73;13.58;;;;;;;0.25;100.00;100946.81;1738185;81;21048;-78
2022/03/07 07:17:06;;;;;;;23.67;14.15;;;;;;;0.19;100.00;100946.98;1744612;81;21108;-77
2022/03/07 07:19:33;;;;;;;24.60;14.43;;;;;;;0.10;100.00;100938.25;1748542;81;21567;-80
2022/03/07 07:22:00;;;;;;;20.57;13.35;;;;;;;0.03;100.00;100930.34;1729788;81;21623;-77
2022/03/07 07:24:26;;;;;;;22.75;15.05;;;;;;;0.01;100.00;100934.66;1730429;81;21216;-77
2022/03/07 07:26:53;;;;;;;21.85;13.15;;;;;;;0.02;100.00;100936.34;1738748;81;21160;-77
2022/03/07 07:29:34;;;;;;;19.32;12.73;;;;;;;-0.04;100.00;100931.75;1738915;81;21098;-77
2022/03/07 07:32:03;;;;;;;18.35;12.60;;;;;;;-0.21;100.00;100926.25;1739008;81;21120;-77
2022/03/07 07:34:30;;;;;;;20.25;13.45;;;;;;;-0.30;100.00;100923.91;1744413;81;21176;-77
2022/03/07 07:36:57;;;;;;;18.60;13.15;;;;;;;-0.32;100.00;100921.37;1736199;81;21229;-79
2022/03/07 07:39:24;;;;;;;22.55;13.85;;;;;;;-0.32;100.00;100914.97;1754006;81;21069;-75
2022/03/07 07:41:51;;;;;;;23.22;14.55;;;;;;;-0.37;100.00;100912.56;1753439;81;21073;-77
2022/03/07 07:44:19;;;;;;;28.07;16.02;;;;;;;-0.39;100.00;100910.47;1753990;81;21579;-77
2022/03/07 07:46:46;;;;;;;35.13;20.37;;;;;;;-0.36;100.00;100906.53;1752244;81;21096;-77
2022/03/07 07:49:13;;;;;;;26.33;15.45;;;;;;;-0.34;100.00;100907.34;1752430;81;21202;-77
2022/03/07 07:51:40;;;;;;;24.32;16.27;;;;;;;-0.34;100.00;100903.95;1748418;81;21086;-77
2022/03/07 07:54:07;;;;;;;20.70;14.10;;;;;;;-0.36;100.00;100905.25;1704536;81;21022;-76
2022/03/07 07:56:34;;;;;;;21.23;12.13;;;;;;;-0.44;100.00;100901.22;1742944;81;21002;-77
2022/03/07 07:59:01;;;;;;;21.12;14.93;;;;;;;-0.55;100.00;100909.16;1740772;81;21053;-76
2022/03/07 08:01:29;;;;;;;19.52;13.38;;;;;;;-0.66;100.00;100902.57;1747552;81;21193;-81
2022/03/07 08:03:56;;;;;;;19.90;14.40;;;;;;;-0.69;100.00;100892.44;1699512;81;21066;-76
2022/03/07 08:06:25;;;;;;;23.38;15.63;;;;;;;-0.69;100.00;100895.41;1752773;81;21072;-79
2022/03/07 08:08:55;;;;;;;25.68;14.93;;;;;;;-0.67;100.00;100897.05;1750206;81;21109;-77
2022/03/07 08:11:22;;;;;;;26.17;16.23;;;;;;;-0.60;100.00;100889.25;1719317;81;21487;-77
2022/03/07 08:13:49;;;;;;;23.67;15.63;;;;;;;-0.51;100.00;100885.16;1751605;80;21216;-77
2022/03/07 08:16:18;;;;;;;21.97;14.78;;;;;;;-0.45;100.00;100877.36;1742463;81;38218;-76
2022/03/07 08:18:45;;;;;;;28.02;17.55;;;;;;;-0.42;100.00;100879.83;1744355;81;21073;-80
2022/03/07 08:21:12;;;;;;;25.92;16.25;;;;;;;-0.39;100.00;100874.64;1756684;80;21128;-80
2022/03/07 08:23:40;;;;;;;18.10;13.22;;;;;;;-0.33;100.00;100877.03;1745972;81;21017;-79
2022/03/07 08:26:08;;;;;;;16.60;11.05;;;;;;;-0.30;100.00;100877.84;1738462;81;21690;-78
2022/03/07 08:28:34;;;;;;;16.15;12.68;;;;;;;-0.28;100.00;100870.98;1748517;81;21030;-78
2022/03/07 08:31:01;;;;;;;20.60;14.10;;;;;;;-0.25;100.00;100863.20;1733723;81;21041;-79
2022/03/07 08:33:31;;;;;;;16.73;11.65;;;;;;;-0.19;100.00;100853.66;1723453;82;21430;-79
2022/03/07 08:35:58;;;;;;;14.45;11.28;;;;;;;-0.12;100.00;100849.19;1725285;81;21070;-76
2022/03/07 08:38:27;;;;;;;15.13;10.50;;;;;;;-0.06;100.00;100850.33;1706431;82;21909;-76
2022/03/07 08:40:56;;;;;;;14.20;10.28;;;;;;;0.04;100.00;100844.50;1735932;81;21034;-75
2022/03/07 08:43:23;;;;;;;16.95;12.10;;;;;;;0.14;100.00;100841.23;1731520;82;21605;-76
2022/03/07 08:45:51;;;;;;;15.18;11.05;;;;;;;0.22;100.00;100831.62;1709427;82;21141;-76
2022/03/07 08:48:18;;;;;;;15.55;11.05;;;;;;;0.30;100.00;100833.52;1726582;81;21130;-77
2022/03/07 08:50:48;;;;;;;17.45;11.35;;;;;;;0.36;100.00;100828.66;1701644;84;21347;-77
2022/03/07 08:53:19;;;;;;;15.05;11.22;;;;;;;0.46;100.00;100823.67;1730161;82;21037;-76
2022/03/07 08:55:46;;;;;;;12.90;9.15;;;;;;;0.56;100.00;100829.36;1719840;82;21787;-77
2022/03/07 08:58:13;;;;;;;14.03;10.38;;;;;;;0.66;100.00;100817.55;1711899;82;21085;-79
2022/03/07 09:00:40;;;;;;;13.43;9.68;;;;;;;0.75;100.00;100819.84;1724696;81;21106;-77
2022/03/07 09:03:07;;;;;;;13.58;9.58;;;;;;;0.83;100.00;100819.16;1712918;82;21292;-76
2022/03/07 09:05:36;;;;;;;15.30;9.78;;;;;;;0.86;100.00;100822.89;1701988;84;21061;-77
2022/03/07 09:08:03;;;;;;;12.30;8.80;;;;;;;0.91;100.00;100818.91;1701712;82;21108;-76
2022/03/07 09:10:31;;;;;;;12.03;8.28;;;;;;;0.97;100.00;100817.88;1719404;82;21074;-77
2022/03/07 09:12:58;;;;;;;13.90;8.53;;;;;;;1.00;100.00;100803.69;1731876;82;21025;-77
2022/03/07 09:15:27;;;;;;;13.32;8.60;;;;;;;1.07;100.00;100809.01;1737884;82;22048;-79
2022/03/07 09:17:57;;;;;;;11.83;8.75;;;;;;;1.15;100.00;100810.88;1736986;82;21006;-80
2022/03/07 09:20:25;;;;;;;13.32;9.05;;;;;;;1.16;100.00;100808.69;1728250;82;21040;-76
2022/03/07 09:22:52;;;;;;;15.18;9.60;;;;;;;1.14;100.00;100811.77;1730506;82;21649;-79
2022/03/07 09:25:19;;;;;;;14.40;9.23;;;;;;;1.14;100.00;100814.33;1721361;82;21061;-77
2022/03/07 09:27:46;;;;;;;45.25;22.65;;;;;;;1.13;100.00;100810.09;1707065;82;21104;-76
2022/03/07 09:30:14;;;;;;;61.28;34.92;;;;;;;1.13;100.00;100821.62;1714396;82;21069;-79
2022/03/07 09:32:42;;;;;;;34.23;22.37;;;;;;;1.07;100.00;100812.86;1743765;81;21931;-78
2022/03/07 09:35:10;;;;;;;28.05;16.67;;;;;;;0.97;100.00;100811.01;1754194;81;21043;-77
2022/03/07 09:37:37;;;;;;;20.00;13.20;;;;;;;0.94;100.00;100808.10;1753045;81;21058;-77
2022/03/07 09:40:07;;;;;;;20.15;13.50;;;;;;;0.98;100.00;100804.17;1753446;81;21430;-79
2022/03/07 09:42:36;;;;;;;16.07;10.70;;;;;;;1.05;100.00;100801.80;1752432;81;21062;-77
2022/03/07 09:45:05;;;;;;;13.95;9.33;;;;;;;1.09;100.00;100795.66;1742490;81;21061;-77
2022/03/07 09:47:38;;;;;;;16.25;10.25;;;;;;;1.10;100.00;100795.64;1765420;80;21101;-79
2022/03/07 09:50:05;;;;;;;11.97;8.58;;;;;;;1.13;100.00;100788.70;1743597;81;21506;-78
2022/03/07 09:52:33;;;;;;;13.08;9.00;;;;;;;1.16;100.00;100793.75;1750372;81;21285;-80
2022/03/07 09:55:00;;;;;;;13.10;7.87;;;;;;;1.19;100.00;100793.20;1718737;81;21353;-80
2022/03/07 09:57:30;;;;;;;20.30;7.40;;;;;;;1.23;100.00;100797.78;1730781;81;21570;-79
2022/03/07 09:59:57;;;;;;;15.25;8.73;;;;;;;1.27;100.00;100794.25;1740275;81;21002;-78
2022/03/07 10:02:28;;;;;;;17.37;8.18;;;;;;;1.31;100.00;100788.56;1719130;81;21639;-78
2022/03/07 10:05:02;;;;;;;11.30;8.53;;;;;;;1.33;100.00;100791.47;1720938;81;21919;-78
2022/03/07 10:07:30;;;;;;;11.45;7.67;;;;;;;1.31;100.00;100782.97;1739396;81;21503;-78
2022/03/07 10:10:07;;;;;;;15.23;10.38;;;;;;;1.31;100.00;100782.97;1700001;81;21534;-78
2022/03/07 10:12:36;;;;;;;31.90;10.98;;;;;;;1.29;100.00;100784.74;1754262;81;21041;-77
2022/03/07 10:15:13;;;;;;;39.98;11.80;;;;;;;1.31;100.00;100778.30;1747002;81;21084;-79
2022/03/07 10:17:51;;;;;;;38.02;13.25;;;;;;;1.85;100.00;100781.11;1731380;81;22341;-80
2022/03/07 10:20:24;;;;;;;66.20;13.15;;;;;;;1.97;100.00;100769.98;1732270;81;21089;-80
2022/03/07 10:22:56;;;;;;;71.02;12.82;;;;;;;1.97;100.00;100769.98;1740569;81;21010;-80
2022/03/07 10:25:28;;;;;;;73.12;20.60;;;;;;;2.06;100.00;100767.08;1747683;81;21101;-79
2022/03/07 10:27:57;;;;;;;30.60;13.28;;;;;;;2.21;100.00;100770.36;1739793;81;21064;-81
2022/03/07 10:30:32;;;;;;;26.35;10.98;;;;;;;2.36;100.00;100771.98;1730679;82;21263;-81
2022/03/07 10:33:06;;;;;;;21.52;9.65;;;;;;;2.43;100.00;100760.56;1751292;81;21063;-79
2022/03/07 10:35:42;;;;;;;31.05;8.20;;;;;;;2.52;100.00;100765.32;1749002;81;21066;-80
2022/03/07 10:38:16;;;;;;;33.33;8.93;;;;;;;2.63;100.00;100758.50;1762680;79;22021;-80
2022/03/07 10:40:47;;;;;;;24.37;9.33;;;;;;;2.67;100.00;100754.06;1753830;81;21122;-80
2022/03/07 10:43:15;;;;;;;25.55;10.18;;;;;;;2.65;100.00;100753.28;1741772;81;21263;-79
2022/03/07 10:45:53;;;;;;;18.75;7.47;;;;;;;2.66;100.00;100753.21;1739387;81;21064;-80
2022/03/07 10:48:22;;;;;;;51.28;8.68;;;;;;;2.60;100.00;100747.50;1710695;81;21131;-80
2022/03/07 10:50:57;;;;;;;15.45;9.00;;;;;;;2.54;100.00;100742.14;1748813;81;22206;-80
2022/03/07 10:53:26;;;;;;;16.82;12.15;;;;;;;2.71;100.00;100742.74;1741793;81;21001;-81
2022/03/07 10:55:59;;;;;;;11.50;9.20;;;;;;;2.65;100.00;100742.53;1675870;83;21489;-82
2022/03/07 10:58:27;;;;;;;91.10;52.03;;;;;;;2.49;100.00;100733.33;1676843;84;21074;-82
2022/03/07 11:01:00;;;;;;;38.63;22.37;;;;;;;2.43;100.00;100737.43;1681113;84;21126;-82
2022/03/07 11:03:31;;;;;;;58.00;34.67;;;;;;;2.42;99.25;100727.19;1682552;84;21166;-81
2022/03/07 11:06:03;;;;;;;13.48;8.40;;;;;;;2.38;94.81;100730.33;1680185;84;21097;-80
2022/03/07 11:08:30;;;;;;;10.80;7.70;;;;;;;2.24;92.57;100731.31;1682679;84;21388;-79
2022/03/07 11:11:01;;;;;;;157.75;57.90;;;;;;;2.00;100.00;100732.64;1680896;84;21072;-79